Portada
METAR-TAF:

METAR-TAF

Aeroports :

Holland, Michigan, Estats Units d'Amèrica

latitud: 42-44-46N, longitud: 086-05-48W, altitud: 209 m

Observació

L'informe es va fer fa 58 minuts, a les 00:53 UTC
Vent 7 kt del Est/Sud-Est
Temperatura 22°C
Humitat 78%
Pressió 1014 hPa
Visibilitat: 16.1 km
Cel ennuvolat a una alçada de 11000 ft

METAR: KBIV 280053Z AUTO 12007KT 10SM BKN110 22/18 A2994 RMK AO2 SLP136 T02220183

Hora: 21:51 (01:51 UTC)


TAF: manca

Observacions i pronòstics meteorològics de més de 4000 aeroports (METAR i TAF).

Les estacions disponibles són els punts grocs i vermells al mapa.

Posi el ratolí al punt desitjat per veure el nom de l'estació.

Feu clic per veure les observacions i els pronòstics meteorològics.

Per canviar el mapa: feu clic els botons verds amb una creu de color negre per apropar; al botó verd amb un guió per allunyar la imatge; o en les fletxes verdes per a mapes adjacents.


METAR-TAF: